Time;durP1;ratioP1;P1;durP2;ratioP2;P2;SDS_P1;SDS_P2;PMS_P1;PMS_P2;Temp;Humidity;BMP_temperature;BMP_pressure;BME280_temperature;BME280_humidity;BME280_pressure;Samples;Min_cycle;Max_cycle;Signal;HPM_P1;HPM_P2
2022/03/20 00:00:12;;;;;;;27.63;18.15;;;;;;;;;;5083165;28;20047;-66
2022/03/20 00:02:39;;;;;;;26.17;16.60;;;;;;;;;;5071564;28;20027;-71
2022/03/20 00:05:04;;;;;;;29.90;19.70;;;;;;;;;;5085791;28;20035;-68
2022/03/20 00:07:31;;;;;;;52.80;32.38;;;;;;;;;;5059972;28;20435;-67
2022/03/20 00:09:57;;;;;;;101.53;60.95;;;;;;;;;;5066932;28;20765;-67
2022/03/20 00:12:22;;;;;;;58.22;37.13;;;;;;;;;;5074793;28;20119;-66
2022/03/20 00:14:48;;;;;;;64.80;43.45;;;;;;;;;;5081931;28;20048;-69
2022/03/20 00:17:14;;;;;;;44.08;27.08;;;;;;;;;;5083374;28;20097;-66
2022/03/20 00:19:39;;;;;;;35.85;24.33;;;;;;;;;;5082502;28;20056;-69
2022/03/20 00:22:05;;;;;;;37.97;26.13;;;;;;;;;;5075592;28;20031;-67
2022/03/20 00:24:30;;;;;;;114.45;80.22;;;;;;;;;;5080955;28;20473;-68
2022/03/20 00:27:00;;;;;;;37.53;27.25;;;;;;;;;;5078371;28;20032;-66
2022/03/20 00:29:25;;;;;;;;;;;;;;;;;;5070384;28;20024;-68
2022/03/20 00:31:51;;;;;;;13.93;10.03;;;;;;;;;;5083105;28;19963;-68
2022/03/20 00:34:16;;;;;;;19.33;14.30;;;;;;;;;;5082790;28;20306;-67
2022/03/20 00:36:41;;;;;;;14.52;10.30;;;;;;;;;;5071343;28;20024;-67
2022/03/20 00:39:07;;;;;;;15.57;10.82;;;;;;;;;;5080339;28;20075;-67
2022/03/20 00:41:32;;;;;;;16.48;12.70;;;;;;;;;;5081841;28;20418;-67
2022/03/20 00:43:58;;;;;;;18.83;13.23;;;;;;;;;;5076655;28;20059;-67
2022/03/20 00:46:24;;;;;;;60.83;46.92;;;;;;;;;;5075026;28;20435;-71
2022/03/20 00:48:49;;;;;;;48.72;38.95;;;;;;;;;;5080047;28;20035;-70
2022/03/20 00:51:15;;;;;;;18.45;14.82;;;;;;;;;;5072459;28;20457;-66
2022/03/20 00:53:40;;;;;;;28.60;22.13;;;;;;;;;;5074599;28;20042;-67
2022/03/20 00:56:06;;;;;;;19.67;13.98;;;;;;;;;;5081341;28;20024;-67
2022/03/20 00:58:31;;;;;;;14.77;10.55;;;;;;;;;;5083772;28;20024;-67
2022/03/20 01:00:56;;;;;;;13.65;9.88;;;;;;;;;;5069429;28;20372;-67
2022/03/20 01:03:22;;;;;;;26.27;16.77;;;;;;;;;;5073814;28;20028;-66
2022/03/20 01:05:47;;;;;;;67.63;40.17;;;;;;;;;;5074998;28;20032;-70
2022/03/20 01:08:13;;;;;;;42.85;26.70;;;;;;;;;;5076534;28;20031;-67
2022/03/20 01:10:39;;;;;;;60.70;36.22;;;;;;;;;;5081609;28;20089;-67
2022/03/20 01:13:04;;;;;;;45.33;27.40;;;;;;;;;;5078071;28;20462;-69
2022/03/20 01:15:31;;;;;;;48.17;31.08;;;;;;;;;;5086041;28;20509;-67
2022/03/20 01:17:56;;;;;;;55.50;31.85;;;;;;;;;;5086144;28;20031;-67
2022/03/20 01:20:22;;;;;;;30.63;20.05;;;;;;;;;;5084445;28;20330;-67
2022/03/20 01:22:49;;;;;;;33.42;18.90;;;;;;;;;;5074004;28;20032;-67
2022/03/20 01:25:15;;;;;;;19.67;14.55;;;;;;;;;;5084076;28;20027;-70
2022/03/20 01:27:42;;;;;;;18.05;13.02;;;;;;;;;;5086035;28;20020;-66
2022/03/20 01:30:08;;;;;;;32.90;20.17;;;;;;;;;;5085637;28;20090;-70
2022/03/20 01:32:33;;;;;;;22.52;13.25;;;;;;;;;;5076337;28;20436;-67
2022/03/20 01:34:59;;;;;;;51.55;32.15;;;;;;;;;;5083069;28;20039;-70
2022/03/20 01:37:24;;;;;;;51.35;33.40;;;;;;;;;;5080347;28;20032;-66
2022/03/20 01:39:50;;;;;;;58.47;35.60;;;;;;;;;;5084622;28;20028;-68
2022/03/20 01:42:15;;;;;;;52.55;32.75;;;;;;;;;;5084272;28;20161;-67
2022/03/20 01:44:41;;;;;;;31.92;20.48;;;;;;;;;;5085390;28;20180;-66
2022/03/20 01:47:08;;;;;;;52.50;35.35;;;;;;;;;;5083730;28;20352;-66
2022/03/20 01:49:33;;;;;;;57.58;36.60;;;;;;;;;;5084663;28;20020;-66
2022/03/20 01:52:11;;;;;;;35.38;24.42;;;;;;;;;;5079429;28;20027;-69
2022/03/20 01:54:41;;;;;;;39.63;25.98;;;;;;;;;;5080006;28;20063;-66
2022/03/20 01:57:07;;;;;;;;;;;;;;;;;;5086725;28;20106;-67
2022/03/20 01:59:32;;;;;;;38.78;23.38;;;;;;;;;;5082935;28;20006;-67
2022/03/20 02:01:58;;;;;;;48.42;25.88;;;;;;;;;;5081021;28;20435;-66
2022/03/20 02:04:23;;;;;;;108.75;56.45;;;;;;;;;;5085361;28;20110;-67
2022/03/20 02:06:48;;;;;;;71.45;41.95;;;;;;;;;;5086619;28;20031;-66
2022/03/20 02:09:14;;;;;;;67.28;38.38;;;;;;;;;;5079494;28;20357;-68
2022/03/20 02:11:43;;;;;;;64.70;36.00;;;;;;;;;;5085795;28;20023;-66
2022/03/20 02:14:09;;;;;;;84.15;44.97;;;;;;;;;;5080635;28;20070;-66
2022/03/20 02:16:34;;;;;;;104.70;60.05;;;;;;;;;;5077549;28;20111;-66
2022/03/20 02:19:00;;;;;;;88.40;50.85;;;;;;;;;;5083353;28;20486;-65
2022/03/20 02:21:35;;;;;;;58.78;36.00;;;;;;;;;;5086722;28;20039;-69
2022/03/20 02:24:01;;;;;;;60.58;34.17;;;;;;;;;;5075059;28;20076;-68
2022/03/20 02:26:26;;;;;;;49.10;28.88;;;;;;;;;;5081511;28;20028;-66
2022/03/20 02:28:51;;;;;;;62.10;35.17;;;;;;;;;;5083964;28;20107;-66
2022/03/20 02:31:17;;;;;;;105.20;61.25;;;;;;;;;;5084283;28;20042;-66
2022/03/20 02:33:43;;;;;;;138.52;70.40;;;;;;;;;;5084557;28;20072;-67
2022/03/20 02:36:08;;;;;;;90.07;46.58;;;;;;;;;;5078194;28;20055;-71
2022/03/20 02:38:34;;;;;;;83.70;45.25;;;;;;;;;;5076392;28;20073;-69
2022/03/20 02:41:14;;;;;;;80.97;43.72;;;;;;;;;;5072597;28;20016;-65
2022/03/20 02:43:39;;;;;;;;;;;;;;;;;;5082747;28;20039;-65
2022/03/20 02:46:04;;;;;;;77.77;38.97;;;;;;;;;;5083763;28;19920;-67
2022/03/20 02:48:30;;;;;;;104.50;50.22;;;;;;;;;;5083905;28;21308;-68
2022/03/20 02:50:55;;;;;;;103.65;56.42;;;;;;;;;;5084119;28;20024;-65
2022/03/20 02:53:21;;;;;;;144.20;75.72;;;;;;;;;;5083296;28;21118;-69
2022/03/20 02:55:46;;;;;;;137.80;74.25;;;;;;;;;;5074806;28;20068;-66
2022/03/20 02:58:15;;;;;;;176.57;89.72;;;;;;;;;;5074568;28;20032;-69
2022/03/20 03:00:41;;;;;;;136.68;67.60;;;;;;;;;;5074137;28;20082;-68
2022/03/20 03:03:08;;;;;;;114.63;70.60;;;;;;;;;;5084076;28;20044;-67
2022/03/20 03:05:34;;;;;;;86.38;47.90;;;;;;;;;;5081963;28;20443;-67
2022/03/20 03:10:59;;;;;;;66.43;34.42;;;;;;;;;;5082351;28;20042;-69
2022/03/20 03:13:24;;;;;;;;;;;;;;;;;;5083848;28;20065;-68
2022/03/20 03:15:53;;;;;;;82.00;35.10;;;;;;;;;;5081575;28;19916;-70
2022/03/20 03:18:20;;;;;;;75.68;33.53;;;;;;;;;;5081062;28;20260;-67
2022/03/20 03:20:45;;;;;;;72.45;40.72;;;;;;;;;;5082849;28;20474;-66
2022/03/20 03:23:11;;;;;;;63.08;33.40;;;;;;;;;;5072780;28;20043;-68
2022/03/20 03:25:40;;;;;;;47.63;25.95;;;;;;;;;;5083368;28;20038;-68
2022/03/20 03:28:06;;;;;;;64.50;30.83;;;;;;;;;;5081332;28;20111;-66
2022/03/20 03:30:31;;;;;;;70.68;37.05;;;;;;;;;;5083623;28;20106;-66
2022/03/20 03:32:57;;;;;;;77.32;40.45;;;;;;;;;;5081221;28;20016;-68
2022/03/20 03:38:06;;;;;;;83.55;41.28;;;;;;;;;;5082185;28;20089;-66
2022/03/20 03:40:32;;;;;;;61.17;31.25;;;;;;;;;;5082807;28;20024;-66
2022/03/20 03:43:00;;;;;;;58.63;29.27;;;;;;;;;;5074996;28;20438;-67
2022/03/20 03:45:25;;;;;;;65.85;35.08;;;;;;;;;;5071830;28;20380;-66
2022/03/20 03:47:51;;;;;;;57.47;32.25;;;;;;;;;;5077004;28;20110;-70
2022/03/20 03:50:17;;;;;;;71.65;29.67;;;;;;;;;;5083225;28;20085;-67
2022/03/20 03:52:43;;;;;;;64.35;31.20;;;;;;;;;;5081522;28;20028;-68
2022/03/20 03:55:08;;;;;;;60.45;32.28;;;;;;;;;;5084036;28;20067;-67
2022/03/20 03:57:34;;;;;;;150.15;66.13;;;;;;;;;;5081802;28;20027;-66
2022/03/20 03:59:59;;;;;;;98.25;50.53;;;;;;;;;;5082676;28;20024;-70
2022/03/20 04:02:24;;;;;;;70.60;38.60;;;;;;;;;;5077532;28;20016;-68
2022/03/20 04:04:50;;;;;;;65.85;43.75;;;;;;;;;;5077161;28;20131;-66
2022/03/20 04:07:18;;;;;;;57.33;23.30;;;;;;;;;;5084038;28;20366;-70
2022/03/20 04:09:47;;;;;;;103.00;40.38;;;;;;;;;;5082664;28;20488;-66
2022/03/20 04:12:15;;;;;;;93.13;37.28;;;;;;;;;;5080430;28;20048;-67
2022/03/20 04:14:41;;;;;;;86.63;42.88;;;;;;;;;;5080438;28;20164;-66
2022/03/20 04:17:07;;;;;;;43.20;22.40;;;;;;;;;;5081355;28;21172;-66
2022/03/20 04:19:32;;;;;;;54.25;26.98;;;;;;;;;;5083332;28;20667;-67
2022/03/20 04:21:59;;;;;;;58.20;26.48;;;;;;;;;;5081797;28;20032;-66
2022/03/20 04:24:24;;;;;;;48.03;21.77;;;;;;;;;;5082024;28;20097;-66
2022/03/20 04:26:50;;;;;;;47.83;25.27;;;;;;;;;;5081969;28;20043;-68
2022/03/20 04:29:15;;;;;;;41.55;20.48;;;;;;;;;;5081298;28;20043;-67
2022/03/20 04:31:40;;;;;;;44.13;23.52;;;;;;;;;;5082202;28;20035;-67
2022/03/20 04:34:06;;;;;;;40.92;22.98;;;;;;;;;;5082184;28;20036;-68
2022/03/20 04:36:31;;;;;;;44.28;20.23;;;;;;;;;;5082029;28;20082;-69
2022/03/20 04:38:59;;;;;;;50.17;23.17;;;;;;;;;;5085273;28;20035;-66
2022/03/20 04:41:24;;;;;;;48.50;24.73;;;;;;;;;;5084384;28;20059;-66
2022/03/20 04:43:50;;;;;;;49.60;22.67;;;;;;;;;;5085495;28;20064;-65
2022/03/20 04:46:16;;;;;;;209.95;102.65;;;;;;;;;;5084907;28;20573;-66
2022/03/20 04:59:36;;;;;;;101.80;40.58;;;;;;;;;;5088398;28;20047;-65
2022/03/20 05:02:02;;;;;;;98.05;44.25;;;;;;;;;;5085515;28;20020;-67
2022/03/20 05:04:27;;;;;;;99.00;46.08;;;;;;;;;;5085940;28;20028;-70
2022/03/20 05:06:53;;;;;;;60.70;29.85;;;;;;;;;;5083343;28;20057;-66
2022/03/20 05:14:46;;;;;;;196.82;77.38;;;;;;;;;;5085441;28;20914;-66
2022/03/20 05:17:11;;;;;;;226.25;84.22;;;;;;;;;;5087655;28;20032;-66
2022/03/20 05:19:37;;;;;;;128.27;62.28;;;;;;;;;;5083218;28;20047;-65
2022/03/20 05:22:04;;;;;;;70.47;34.80;;;;;;;;;;5075447;28;20032;-68
2022/03/20 05:24:29;;;;;;;58.10;38.45;;;;;;;;;;5073050;28;20035;-70
2022/03/20 05:26:55;;;;;;;54.05;25.90;;;;;;;;;;5074593;28;20027;-66
2022/03/20 05:29:20;;;;;;;54.22;24.63;;;;;;;;;;5074282;28;20439;-67
2022/03/20 05:31:46;;;;;;;68.15;39.55;;;;;;;;;;5071546;28;20058;-65
2022/03/20 05:34:12;;;;;;;68.22;36.53;;;;;;;;;;5073277;28;20028;-66
2022/03/20 05:36:38;;;;;;;58.75;30.80;;;;;;;;;;5072464;28;20103;-67
2022/03/20 05:39:03;;;;;;;61.33;31.25;;;;;;;;;;5074297;28;20039;-68
2022/03/20 05:41:47;;;;;;;104.95;44.08;;;;;;;;;;5071179;28;20032;-66
2022/03/20 05:44:16;;;;;;;102.82;47.60;;;;;;;;;;5074260;28;20035;-65
2022/03/20 05:46:46;;;;;;;102.65;36.20;;;;;;;;;;5064237;28;20335;-70
2022/03/20 05:49:11;;;;;;;;;;;;;;;;;;5059767;28;20718;-67
2022/03/20 05:51:37;;;;;;;108.78;48.22;;;;;;;;;;5076041;28;20437;-70
2022/03/20 05:54:03;;;;;;;67.30;41.40;;;;;;;;;;5074462;28;20020;-68
2022/03/20 05:59:12;;;;;;;59.45;28.95;;;;;;;;;;5085845;28;20092;-70
2022/03/20 06:01:38;;;;;;;66.43;35.25;;;;;;;;;;5081918;28;20031;-69
2022/03/20 06:04:05;;;;;;;65.70;36.38;;;;;;;;;;5074849;28;20456;-67
2022/03/20 06:06:31;;;;;;;41.08;24.55;;;;;;;;;;5078512;28;20120;-71
2022/03/20 06:08:56;;;;;;;48.88;26.48;;;;;;;;;;5079929;28;20103;-70
2022/03/20 06:11:21;;;;;;;62.60;25.85;;;;;;;;;;5085102;28;20123;-68
2022/03/20 06:13:48;;;;;;;64.80;32.30;;;;;;;;;;5085679;28;20083;-67
2022/03/20 06:16:17;;;;;;;66.93;35.00;;;;;;;;;;5083968;28;20077;-67
2022/03/20 06:18:43;;;;;;;;;;;;;;;;;;5078731;28;20127;-68
2022/03/20 06:21:11;;;;;;;67.20;28.60;;;;;;;;;;5073562;28;20402;-66
2022/03/20 06:23:38;;;;;;;46.80;29.52;;;;;;;;;;5075840;28;20287;-69
2022/03/20 06:26:03;;;;;;;39.67;25.52;;;;;;;;;;5075105;28;20039;-68
2022/03/20 06:28:29;;;;;;;347.88;134.35;;;;;;;;;;5074056;28;20032;-69
2022/03/20 06:30:54;;;;;;;483.15;162.05;;;;;;;;;;5079480;28;20024;-68
2022/03/20 06:33:20;;;;;;;285.55;102.65;;;;;;;;;;5083996;28;20355;-71
2022/03/20 06:35:46;;;;;;;367.70;149.90;;;;;;;;;;5084227;28;20024;-71
2022/03/20 06:38:12;;;;;;;126.47;55.00;;;;;;;;;;5077735;28;20735;-73
2022/03/20 06:40:37;;;;;;;208.88;94.93;;;;;;;;;;5060216;28;20016;-71
2022/03/20 06:43:03;;;;;;;129.20;67.25;;;;;;;;;;5085333;28;20028;-70
2022/03/20 06:45:28;;;;;;;79.63;44.10;;;;;;;;;;5085203;28;20059;-69
2022/03/20 06:47:54;;;;;;;64.38;39.50;;;;;;;;;;5059480;28;20126;-70
2022/03/20 06:50:19;;;;;;;61.05;36.92;;;;;;;;;;5082973;28;20028;-67
2022/03/20 06:52:45;;;;;;;63.13;35.38;;;;;;;;;;5086530;28;20020;-71
2022/03/20 06:55:16;;;;;;;61.38;36.88;;;;;;;;;;5079178;28;20031;-65
2022/03/20 06:57:42;;;;;;;58.53;35.47;;;;;;;;;;5072090;28;20024;-74
2022/03/20 07:00:08;;;;;;;52.08;31.92;;;;;;;;;;5071341;28;20032;-69
2022/03/20 07:02:34;;;;;;;47.80;32.00;;;;;;;;;;5071965;28;20024;-69
2022/03/20 07:05:00;;;;;;;61.25;35.63;;;;;;;;;;5070854;28;20054;-70
2022/03/20 07:07:26;;;;;;;157.55;75.55;;;;;;;;;;5060635;28;20043;-66
2022/03/20 07:09:52;;;;;;;95.32;50.22;;;;;;;;;;5072921;28;20086;-68
2022/03/20 07:12:18;;;;;;;84.43;47.95;;;;;;;;;;5080848;28;20024;-71
2022/03/20 07:14:43;;;;;;;69.85;40.90;;;;;;;;;;5082495;28;20139;-68
2022/03/20 07:17:09;;;;;;;58.53;38.63;;;;;;;;;;5081490;28;20455;-71
2022/03/20 07:19:35;;;;;;;70.07;39.63;;;;;;;;;;5081046;28;20016;-66
2022/03/20 07:22:01;;;;;;;38.00;26.70;;;;;;;;;;5084569;28;20726;-71
2022/03/20 07:24:26;;;;;;;42.80;28.98;;;;;;;;;;5082559;28;20119;-73
2022/03/20 07:29:35;;;;;;;96.80;68.40;;;;;;;;;;5084489;28;20366;-73
2022/03/20 07:32:04;;;;;;;78.95;50.60;;;;;;;;;;5081912;28;20449;-72
2022/03/20 07:34:30;;;;;;;115.47;67.03;;;;;;;;;;5079652;28;20024;-75
2022/03/20 07:36:55;;;;;;;63.85;38.47;;;;;;;;;;5058269;28;20027;-75
2022/03/20 07:39:20;;;;;;;52.28;34.70;;;;;;;;;;5081334;28;20450;-72
2022/03/20 07:41:46;;;;;;;25.05;15.32;;;;;;;;;;5082934;28;20071;-74
2022/03/20 07:44:11;;;;;;;21.95;15.75;;;;;;;;;;5082942;28;20389;-73
2022/03/20 07:46:38;;;;;;;53.30;29.00;;;;;;;;;;5081480;28;20070;-73
2022/03/20 07:49:04;;;;;;;28.85;18.15;;;;;;;;;;5082543;28;20069;-73
2022/03/20 07:51:30;;;;;;;17.60;12.05;;;;;;;;;;5081211;28;20339;-73
2022/03/20 07:53:56;;;;;;;22.55;15.45;;;;;;;;;;5077073;28;20035;-76
2022/03/20 07:56:22;;;;;;;29.23;18.63;;;;;;;;;;5071465;28;20036;-73
2022/03/20 07:58:48;;;;;;;31.00;18.55;;;;;;;;;;5088985;28;20048;-72
2022/03/20 08:01:13;;;;;;;69.80;30.25;;;;;;;;;;5082495;28;20465;-74
2022/03/20 08:03:41;;;;;;;38.88;18.48;;;;;;;;;;5082295;28;20031;-73
2022/03/20 08:06:07;;;;;;;14.15;10.60;;;;;;;;;;5084101;28;20468;-72
2022/03/20 08:08:32;;;;;;;18.67;13.18;;;;;;;;;;5083683;28;20343;-72
2022/03/20 08:10:57;;;;;;;15.00;11.82;;;;;;;;;;5085460;28;20038;-72
2022/03/20 08:13:23;;;;;;;19.52;14.68;;;;;;;;;;5084106;28;20509;-68
2022/03/20 08:15:48;;;;;;;69.13;33.58;;;;;;;;;;5085907;28;20077;-72
2022/03/20 08:18:14;;;;;;;29.98;15.55;;;;;;;;;;5083037;28;20346;-73
2022/03/20 08:20:41;;;;;;;77.28;34.10;;;;;;;;;;5082404;28;20437;-72
2022/03/20 08:23:06;;;;;;;18.48;12.75;;;;;;;;;;5083469;28;20028;-74
2022/03/20 08:25:32;;;;;;;52.95;27.80;;;;;;;;;;5081933;28;20024;-72
2022/03/20 08:27:57;;;;;;;29.67;17.88;;;;;;;;;;5080236;28;20059;-71
2022/03/20 08:30:23;;;;;;;60.63;29.90;;;;;;;;;;5071929;28;20039;-72
2022/03/20 08:32:52;;;;;;;31.35;14.13;;;;;;;;;;5075430;28;20331;-78
2022/03/20 08:35:18;;;;;;;44.60;23.73;;;;;;;;;;5071708;28;20032;-75
2022/03/20 08:37:44;;;;;;;43.67;24.02;;;;;;;;;;5070466;28;20036;-75
2022/03/20 08:40:15;;;;;;;91.20;44.75;;;;;;;;;;5084204;28;20024;-75
2022/03/20 08:42:42;;;;;;;38.15;21.42;;;;;;;;;;5084175;28;20024;-77
2022/03/20 08:45:07;;;;;;;37.38;24.67;;;;;;;;;;5085784;28;20024;-77
2022/03/20 08:47:36;;;;;;;41.80;28.30;;;;;;;;;;5083765;28;20462;-76
2022/03/20 08:50:01;;;;;;;34.38;18.73;;;;;;;;;;5087181;28;20749;-76
2022/03/20 08:52:26;;;;;;;31.90;20.92;;;;;;;;;;5096796;28;20103;-74
2022/03/20 08:54:52;;;;;;;39.85;21.88;;;;;;;;;;5093102;28;20347;-74
2022/03/20 08:57:17;;;;;;;61.22;35.25;;;;;;;;;;5092634;28;20032;-75
2022/03/20 08:59:44;;;;;;;81.72;38.15;;;;;;;;;;5093095;28;20395;-73
2022/03/20 09:02:09;;;;;;;51.28;24.25;;;;;;;;;;5093184;28;20020;-74
2022/03/20 09:04:34;;;;;;;42.65;26.30;;;;;;;;;;5095374;28;20031;-76
2022/03/20 09:07:00;;;;;;;43.58;21.10;;;;;;;;;;5092778;28;20040;-78
2022/03/20 09:09:25;;;;;;;135.75;59.53;;;;;;;;;;5092910;28;20091;-78
2022/03/20 09:11:51;;;;;;;75.25;43.53;;;;;;;;;;5092870;28;20343;-77
2022/03/20 09:14:16;;;;;;;72.35;41.55;;;;;;;;;;5092472;28;20344;-76
2022/03/20 09:19:26;;;;;;;34.60;23.23;;;;;;;;;;5092753;28;20417;-76
2022/03/20 09:21:52;;;;;;;45.97;26.10;;;;;;;;;;5092615;28;20788;-77
2022/03/20 09:24:17;;;;;;;38.45;25.00;;;;;;;;;;5094863;28;20107;-77
2022/03/20 09:26:43;;;;;;;48.22;28.02;;;;;;;;;;5096678;28;20051;-77
2022/03/20 09:29:08;;;;;;;81.82;43.40;;;;;;;;;;5096519;28;20020;-78
2022/03/20 09:31:34;;;;;;;49.45;24.73;;;;;;;;;;5096446;28;20024;-77
2022/03/20 09:34:01;;;;;;;44.67;26.17;;;;;;;;;;5096121;28;20024;-73
2022/03/20 09:36:26;;;;;;;36.80;24.85;;;;;;;;;;5108504;28;20423;-75
2022/03/20 09:38:52;;;;;;;36.80;23.20;;;;;;;;;;5092378;28;20039;-74
2022/03/20 09:41:17;;;;;;;53.60;24.17;;;;;;;;;;5079935;28;20031;-77
2022/03/20 09:43:43;;;;;;;21.88;14.63;;;;;;;;;;5075306;28;20354;-79
2022/03/20 09:46:09;;;;;;;28.20;16.88;;;;;;;;;;5076747;28;20419;-75
2022/03/20 09:48:34;;;;;;;59.55;31.02;;;;;;;;;;5078913;28;20020;-78
2022/03/20 09:51:01;;;;;;;91.97;45.90;;;;;;;;;;5086727;28;20035;-73
2022/03/20 09:53:27;;;;;;;47.00;28.77;;;;;;;;;;5089146;28;20031;-73
2022/03/20 09:55:55;;;;;;;34.10;24.75;;;;;;;;;;5085532;28;20024;-77
2022/03/20 09:58:28;;;;;;;49.15;32.58;;;;;;;;;;5062712;28;20024;-79
2022/03/20 10:00:54;;;;;;;37.95;32.75;;;;;;;;;;5074059;28;20012;-79
2022/03/20 10:03:21;;;;;;;33.83;25.48;;;;;;;;;;5075331;28;20497;-79
2022/03/20 10:06:01;;;;;;;35.33;25.98;;;;;;;;;;5080936;28;20184;-80
2022/03/20 10:08:27;;;;;;;81.78;35.53;;;;;;;;;;5075412;28;20040;-79
2022/03/20 10:11:10;;;;;;;23.92;13.27;;;;;;;;;;5079912;28;20451;-80
2022/03/20 10:13:36;;;;;;;42.30;20.90;;;;;;;;;;5077037;28;20079;-78
2022/03/20 10:16:16;;;;;;;17.60;10.40;;;;;;;;;;5075646;28;20558;-78
2022/03/20 10:18:41;;;;;;;17.52;12.07;;;;;;;;;;5076961;28;20028;-79
2022/03/20 10:21:09;;;;;;;17.67;8.65;;;;;;;;;;5075071;28;20360;-73
2022/03/20 10:23:36;;;;;;;41.55;18.20;;;;;;;;;;5086367;28;20016;-78
2022/03/20 10:26:05;;;;;;;11.20;7.38;;;;;;;;;;5086779;28;20024;-77
2022/03/20 10:28:42;;;;;;;13.48;10.75;;;;;;;;;;5088395;28;20457;-79
2022/03/20 10:31:09;;;;;;;36.80;17.30;;;;;;;;;;5086481;28;20028;-81
2022/03/20 10:33:38;;;;;;;42.75;21.77;;;;;;;;;;5086305;28;20024;-78
2022/03/20 10:36:07;;;;;;;37.58;18.00;;;;;;;;;;5084449;28;20074;-80
2022/03/20 10:38:36;;;;;;;61.00;26.10;;;;;;;;;;5088085;28;20031;-78
2022/03/20 10:41:01;;;;;;;15.27;10.18;;;;;;;;;;5068483;28;20048;-79
2022/03/20 10:43:26;;;;;;;11.77;8.80;;;;;;;;;;5084446;28;20109;-76
2022/03/20 10:46:00;;;;;;;21.60;12.95;;;;;;;;;;5085092;28;20044;-79
2022/03/20 10:48:28;;;;;;;28.83;16.52;;;;;;;;;;5088210;28;20023;-80
2022/03/20 10:50:54;;;;;;;39.17;20.27;;;;;;;;;;5084395;28;20032;-78
2022/03/20 10:53:19;;;;;;;39.55;18.65;;;;;;;;;;5084760;28;20047;-76
2022/03/20 10:55:45;;;;;;;24.88;13.02;;;;;;;;;;5085574;28;20023;-77
2022/03/20 10:58:17;;;;;;;36.97;21.20;;;;;;;;;;5084859;28;20145;-78
2022/03/20 11:00:46;;;;;;;21.60;15.05;;;;;;;;;;5089171;28;20043;-76
2022/03/20 11:03:13;;;;;;;11.13;6.60;;;;;;;;;;5084087;28;20806;-78
2022/03/20 11:05:38;;;;;;;13.80;8.05;;;;;;;;;;5079704;28;20084;-75
2022/03/20 11:08:04;;;;;;;19.45;9.50;;;;;;;;;;5081806;28;20028;-78
2022/03/20 11:10:30;;;;;;;12.07;7.88;;;;;;;;;;5084254;28;20133;-78
2022/03/20 11:12:57;;;;;;;12.93;7.80;;;;;;;;;;5084302;28;20205;-79
2022/03/20 11:15:22;;;;;;;25.73;14.57;;;;;;;;;;5085885;28;20519;-79
2022/03/20 11:17:49;;;;;;;14.27;8.55;;;;;;;;;;5085812;28;20060;-78
2022/03/20 11:20:15;;;;;;;16.50;8.63;;;;;;;;;;5078754;28;20063;-79
2022/03/20 11:22:48;;;;;;;11.50;7.50;;;;;;;;;;5078372;28;20028;-78
2022/03/20 11:25:17;;;;;;;11.60;7.57;;;;;;;;;;5083240;28;20467;-77
2022/03/20 11:27:43;;;;;;;19.67;9.40;;;;;;;;;;5086604;28;20067;-77
2022/03/20 11:30:08;;;;;;;13.55;8.98;;;;;;;;;;5086638;28;20039;-75
2022/03/20 11:32:34;;;;;;;20.08;11.32;;;;;;;;;;5085624;28;20031;-76
2022/03/20 11:35:00;;;;;;;20.67;13.48;;;;;;;;;;5085053;28;20435;-76
2022/03/20 11:37:42;;;;;;;17.55;10.68;;;;;;;;;;5084012;28;20028;-77
2022/03/20 11:40:20;;;;;;;18.83;10.70;;;;;;;;;;5083900;28;20035;-77
2022/03/20 11:42:46;;;;;;;23.13;13.77;;;;;;;;;;5083651;28;20091;-77
2022/03/20 11:45:16;;;;;;;31.35;16.35;;;;;;;;;;5084681;28;20093;-74
2022/03/20 11:47:41;;;;;;;;;;;;;;;;;;5082673;28;20016;-77
2022/03/20 11:50:26;;;;;;;27.88;15.70;;;;;;;;;;5077822;28;19908;-76
2022/03/20 11:53:02;;;;;;;36.65;16.40;;;;;;;;;;5078406;28;20110;-74
2022/03/20 11:55:29;;;;;;;41.63;18.83;;;;;;;;;;5072755;28;20355;-73
2022/03/20 11:57:54;;;;;;;24.88;14.60;;;;;;;;;;5059622;28;20343;-77
2022/03/20 12:00:30;;;;;;;29.17;18.23;;;;;;;;;;5074938;28;20043;-74
2022/03/20 12:02:58;;;;;;;18.10;11.48;;;;;;;;;;5076224;28;20031;-76
2022/03/20 12:05:32;;;;;;;18.88;12.00;;;;;;;;;;5073931;28;20036;-77
2022/03/20 12:08:07;;;;;;;23.40;17.05;;;;;;;;;;5088736;28;20088;-74
2022/03/20 12:10:45;;;;;;;27.10;14.43;;;;;;;;;;5084657;28;20064;-78
2022/03/20 12:13:20;;;;;;;17.73;9.95;;;;;;;;;;5083624;28;20059;-76
2022/03/20 12:15:45;;;;;;;18.88;12.23;;;;;;;;;;5084671;28;20028;-74
2022/03/20 12:18:11;;;;;;;28.40;15.32;;;;;;;;;;5085884;28;20435;-74
2022/03/20 12:20:49;;;;;;;24.50;12.50;;;;;;;;;;5087966;28;20059;-77
2022/03/20 12:23:43;;;;;;;25.35;15.50;;;;;;;;;;5087629;28;20027;-75
2022/03/20 12:26:23;;;;;;;29.33;18.73;;;;;;;;;;5076795;28;20051;-74
2022/03/20 12:28:48;;;;;;;18.15;12.70;;;;;;;;;;5073679;28;20386;-74
2022/03/20 12:31:24;;;;;;;17.98;11.88;;;;;;;;;;5073065;28;20458;-75
2022/03/20 12:34:10;;;;;;;35.55;22.90;;;;;;;;;;5078433;28;20081;-75
2022/03/20 12:36:35;;;;;;;21.50;14.82;;;;;;;;;;5078937;28;20019;-74
2022/03/20 12:39:00;;;;;;;17.38;12.02;;;;;;;;;;5086527;28;20548;-74
2022/03/20 12:41:26;;;;;;;11.23;7.35;;;;;;;;;;5078109;28;20028;-71
2022/03/20 12:44:01;;;;;;;15.07;10.10;;;;;;;;;;5075219;28;20069;-72
2022/03/20 12:46:26;;;;;;;11.88;7.80;;;;;;;;;;5083121;28;20016;-79
2022/03/20 12:48:52;;;;;;;8.63;6.50;;;;;;;;;;5078915;28;20032;-76
2022/03/20 12:51:38;;;;;;;8.75;6.75;;;;;;;;;;5072671;28;20107;-70
2022/03/20 12:54:09;;;;;;;12.77;7.70;;;;;;;;;;5072334;28;20120;-75
2022/03/20 12:56:34;;;;;;;29.27;17.13;;;;;;;;;;5072787;28;20028;-73
2022/03/20 12:59:00;;;;;;;16.10;9.88;;;;;;;;;;5075910;28;20135;-76
2022/03/20 13:01:35;;;;;;;12.80;9.00;;;;;;;;;;5078851;28;20070;-71
2022/03/20 13:04:00;;;;;;;17.52;10.73;;;;;;;;;;5085278;28;20043;-71
2022/03/20 13:06:28;;;;;;;15.57;9.88;;;;;;;;;;5076736;28;20398;-72
2022/03/20 13:08:54;;;;;;;10.82;8.15;;;;;;;;;;5084107;28;20114;-71
2022/03/20 13:14:04;;;;;;;14.00;9.85;;;;;;;;;;5086527;28;20215;-70
2022/03/20 13:16:30;;;;;;;22.02;13.35;;;;;;;;;;5086626;28;20052;-73
2022/03/20 13:18:56;;;;;;;14.75;8.18;;;;;;;;;;5087323;28;20062;-75
2022/03/20 13:21:21;;;;;;;10.75;8.25;;;;;;;;;;5089656;28;20446;-71
2022/03/20 13:23:48;;;;;;;15.73;9.00;;;;;;;;;;5087118;28;20340;-74
2022/03/20 13:26:20;;;;;;;7.18;5.18;;;;;;;;;;5088792;28;20028;-76
2022/03/20 13:28:46;;;;;;;6.53;4.93;;;;;;;;;;5090253;28;20058;-73
2022/03/20 13:31:13;;;;;;;9.32;6.78;;;;;;;;;;5089045;28;20016;-73
2022/03/20 13:33:45;;;;;;;21.15;14.50;;;;;;;;;;5092049;28;20024;-76
2022/03/20 13:36:10;;;;;;;39.30;23.10;;;;;;;;;;5091717;28;20028;-77
2022/03/20 13:38:43;;;;;;;18.15;11.07;;;;;;;;;;5092232;28;20074;-77
2022/03/20 13:41:11;;;;;;;16.08;9.98;;;;;;;;;;5094076;28;20046;-75
2022/03/20 13:43:36;;;;;;;13.38;8.50;;;;;;;;;;5085078;28;20015;-71
2022/03/20 13:46:23;;;;;;;12.90;8.32;;;;;;;;;;5086973;28;20323;-80
2022/03/20 13:48:50;;;;;;;8.50;6.07;;;;;;;;;;5087783;28;20038;-70
2022/03/20 13:51:20;;;;;;;31.73;16.85;;;;;;;;;;5086133;28;20052;-77
2022/03/20 13:53:46;;;;;;;20.67;12.65;;;;;;;;;;5086851;28;20032;-77
2022/03/20 13:56:22;;;;;;;26.33;14.65;;;;;;;;;;5088935;28;20308;-82
2022/03/20 13:59:07;;;;;;;29.02;17.92;;;;;;;;;;5081346;28;20048;-79
2022/03/20 14:01:54;;;;;;;27.25;15.77;;;;;;;;;;5088868;28;20050;-77
2022/03/20 14:04:20;;;;;;;12.80;8.27;;;;;;;;;;5092561;28;20576;-76
2022/03/20 14:06:47;;;;;;;16.55;10.35;;;;;;;;;;5092135;28;20030;-74
2022/03/20 14:09:13;;;;;;;18.45;10.38;;;;;;;;;;5086987;28;20062;-73
2022/03/20 14:11:39;;;;;;;23.42;12.43;;;;;;;;;;5090494;28;20442;-75
2022/03/20 14:14:08;;;;;;;23.60;13.15;;;;;;;;;;5085597;28;20122;-74
2022/03/20 14:16:34;;;;;;;18.30;10.73;;;;;;;;;;5087172;28;20097;-75
2022/03/20 14:19:04;;;;;;;14.07;8.95;;;;;;;;;;5086822;28;20498;-75
2022/03/20 14:21:31;;;;;;;13.73;8.38;;;;;;;;;;5090190;28;22393;-73
2022/03/20 14:23:58;;;;;;;15.32;9.15;;;;;;;;;;5090002;28;20031;-73
2022/03/20 14:26:25;;;;;;;31.23;13.77;;;;;;;;;;5087491;28;20035;-79
2022/03/20 14:40:38;;;;;;;11.32;7.07;;;;;;;;;;5078451;28;20105;-75
2022/03/20 14:43:07;;;;;;;14.32;8.77;;;;;;;;;;5076155;28;20024;-73
2022/03/20 14:45:32;;;;;;;13.10;8.05;;;;;;;;;;5076823;28;20036;-73
2022/03/20 14:47:59;;;;;;;15.63;10.77;;;;;;;;;;5074550;28;20028;-73
2022/03/20 14:50:24;;;;;;;16.20;12.43;;;;;;;;;;5077627;28;20035;-74
2022/03/20 14:52:52;;;;;;;10.82;8.00;;;;;;;;;;5085345;28;20024;-74
2022/03/20 14:55:18;;;;;;;16.27;10.80;;;;;;;;;;5089333;28;20032;-72
2022/03/20 14:57:44;;;;;;;26.48;17.98;;;;;;;;;;5082640;28;20020;-73
2022/03/20 15:00:09;;;;;;;16.80;10.75;;;;;;;;;;5076708;28;20032;-71
2022/03/20 15:02:35;;;;;;;14.20;8.80;;;;;;;;;;5073525;28;20028;-72
2022/03/20 15:05:00;;;;;;;12.82;9.25;;;;;;;;;;5077152;28;20447;-72